Time;durP1;ratioP1;P1;durP2;ratioP2;P2;SDS_P1;SDS_P2;PMS_P1;PMS_P2;Temp;Humidity;BMP_temperature;BMP_pressure;BME280_temperature;BME280_humidity;BME280_pressure;Samples;Min_cycle;Max_cycle;Signal;HPM_P1;HPM_P2
2022/11/11 00:01:15;;;;;;;12.25;4.75;;;;;;;9.23;100.00;67794.41;5012394;28;20046;-82
2022/11/11 00:03:42;;;;;;;7.43;3.67;;;;;;;9.22;100.00;67798.59;5020692;28;20049;-82
2022/11/11 00:06:10;;;;;;;9.13;4.88;;;;;;;9.20;100.00;67791.00;5017389;28;20140;-82
2022/11/11 00:08:35;;;;;;;9.50;4.43;;;;;;;;;;5016151;28;20038;-82
2022/11/11 00:11:06;;;;;;;9.75;4.60;;;;;;;9.16;100.00;67796.53;5017263;28;20102;-82
2022/11/11 00:13:32;;;;;;;10.02;4.50;;;;;;;9.15;100.00;67790.66;5017181;28;20045;-82
2022/11/11 00:16:10;;;;;;;11.43;5.13;;;;;;;9.16;100.00;67791.78;5015536;28;20602;-82
2022/11/11 00:26:48;;;;;;;9.98;4.25;;;;;;;9.02;100.00;67781.25;5013249;28;20044;-82
2022/11/11 00:29:14;;;;;;;9.70;4.00;;;;;;;9.02;100.00;67771.19;5014817;28;20107;-82
2022/11/11 00:32:21;;;;;;;6.80;4.32;;;;;;;;;;5022256;28;20077;-82
2022/11/11 00:34:25;;;;;;;11.10;4.50;;;;;;;8.98;100.00;67771.41;5007999;28;20050;-82
2022/11/11 00:36:50;;;;;;;7.85;4.32;;;;;;;9.00;100.00;67773.66;5010551;28;20045;-82
2022/11/11 00:39:16;;;;;;;8.55;3.80;;;;;;;;;;5008911;28;20189;-82
2022/11/11 00:41:41;;;;;;;8.48;3.85;;;;;;;8.99;100.00;67772.53;5012399;28;20045;-82
2022/11/11 00:44:06;;;;;;;8.50;3.67;;;;;;;;;;5010733;28;20685;-82
2022/11/11 00:52:00;;;;;;;8.80;3.22;;;;;;;8.89;100.00;67756.47;4992605;28;20180;-82
2022/11/11 00:54:25;;;;;;;8.38;3.80;;;;;;;8.90;100.00;67762.34;5004543;28;20077;-82
2022/11/11 00:56:50;;;;;;;7.88;3.53;;;;;;;;;;5006654;28;20050;-82
2022/11/11 00:59:15;;;;;;;9.30;4.05;;;;;;;;;;5010690;28;20030;-82
2022/11/11 01:01:41;;;;;;;7.93;4.10;;;;;;;8.90;100.00;67762.34;5010196;28;20042;-82
2022/11/11 01:04:06;;;;;;;8.98;4.05;;;;;;;8.86;100.00;67758.38;5009985;28;20280;-82
2022/11/11 01:06:31;;;;;;;10.02;3.97;;;;;;;8.81;100.00;67753.25;5010196;28;20049;-82
2022/11/11 01:08:57;;;;;;;8.82;4.18;;;;;;;8.80;100.00;67746.25;5008504;28;20137;-82
2022/11/11 01:11:23;;;;;;;8.88;3.65;;;;;;;8.78;100.00;67749.31;5012353;28;20030;-83
2022/11/11 01:13:49;;;;;;;7.72;3.97;;;;;;;8.77;100.00;67751.38;5007697;28;20044;-82
2022/11/11 01:16:24;;;;;;;7.32;3.78;;;;;;;8.76;100.00;67747.59;5010290;28;20088;-82
2022/11/11 01:18:51;;;;;;;12.60;4.57;;;;;;;8.75;100.00;67745.91;5011479;28;20033;-82
2022/11/11 01:21:20;;;;;;;12.25;4.03;;;;;;;;;;5015126;28;20041;-82
2022/11/11 01:23:47;;;;;;;9.25;4.00;;;;;;;;;;5017058;28;20058;-82
2022/11/11 01:26:20;;;;;;;6.95;3.80;;;;;;;8.68;100.00;67733.22;5013635;28;20042;-82
2022/11/11 01:28:54;;;;;;;12.00;4.68;;;;;;;8.68;100.00;67732.66;5007110;28;20046;-82
2022/11/11 01:31:20;;;;;;;7.28;3.92;;;;;;;;;;5012350;28;20108;-82
2022/11/11 01:33:46;;;;;;;12.20;4.18;;;;;;;8.73;100.00;67743.63;5014550;28;20053;-82
2022/11/11 01:36:14;;;;;;;8.35;4.00;;;;;;;8.72;100.00;67745.16;5014087;28;20493;-83
2022/11/11 01:38:41;;;;;;;8.50;4.10;;;;;;;;;;4997590;28;20050;-82
2022/11/11 01:43:52;;;;;;;11.13;4.50;;;;;;;8.68;100.00;67738.53;5008706;28;20080;-81
2022/11/11 01:46:24;;;;;;;9.43;4.63;;;;;;;;;;5011276;28;20598;-82
2022/11/11 01:51:54;;;;;;;9.75;4.50;;;;;;;;;;5014947;28;20049;-82
2022/11/11 01:54:29;;;;;;;11.70;5.10;;;;;;;8.61;100.00;67730.59;5010161;28;20610;-82
2022/11/11 01:57:01;;;;;;;10.93;4.38;;;;;;;8.63;100.00;67732.28;5014141;28;20054;-82
2022/11/11 01:59:26;;;;;;;9.85;4.15;;;;;;;;;;5015281;28;20459;-82
2022/11/11 02:01:52;;;;;;;8.35;4.93;;;;;;;8.60;100.00;67724.16;5013188;28;20046;-82
2022/11/11 02:07:07;;;;;;;9.23;4.72;;;;;;;8.53;100.00;67716.78;5012862;28;20579;-81
2022/11/11 02:09:34;;;;;;;7.78;4.75;;;;;;;8.54;100.00;67725.31;5015569;28;20067;-82
2022/11/11 02:14:53;;;;;;;9.27;4.53;;;;;;;8.51;100.00;67721.91;5006802;28;20435;-82
2022/11/11 02:17:18;;;;;;;;;;;;;;;;;;5012048;28;20069;-82
2022/11/11 02:19:52;;;;;;;11.60;4.38;;;;;;;8.40;100.00;67712.09;5012762;28;19920;-82
2022/11/11 02:22:44;;;;;;;8.10;4.97;;;;;;;8.41;100.00;67707.94;4992331;28;20108;-82
2022/11/11 02:25:14;;;;;;;12.00;5.65;;;;;;;8.42;100.00;67711.72;4997286;28;20042;-82
2022/11/11 02:27:44;;;;;;;10.20;5.25;;;;;;;8.41;100.00;67707.94;5036419;28;20041;-81
2022/11/11 02:30:14;;;;;;;15.73;6.35;;;;;;;8.42;100.00;67703.78;5011699;28;20034;-82
2022/11/11 02:32:44;;;;;;;14.65;5.20;;;;;;;8.41;100.00;67702.66;5010841;28;20584;-82
2022/11/11 02:35:20;;;;;;;11.15;6.07;;;;;;;8.41;100.00;67711.16;5012563;28;20046;-81
2022/11/11 02:37:51;;;;;;;10.75;5.70;;;;;;;8.40;100.00;67707.38;5012352;28;20037;-81
2022/11/11 02:40:22;;;;;;;11.48;5.93;;;;;;;8.40;100.00;67701.50;5008328;28;20043;-81
2022/11/11 02:42:47;;;;;;;10.40;5.03;;;;;;;8.40;100.00;67712.09;5011563;28;20038;-81
2022/11/11 02:45:13;;;;;;;11.40;5.30;;;;;;;8.40;100.00;67701.50;5013067;28;20045;-82
2022/11/11 02:47:38;;;;;;;13.15;6.57;;;;;;;8.42;100.00;67712.28;5014004;28;20065;-81
2022/11/11 02:50:04;;;;;;;11.90;6.70;;;;;;;8.44;100.00;67711.34;4999413;28;20054;-82
2022/11/11 02:52:29;;;;;;;12.25;6.95;;;;;;;8.46;100.00;67714.19;5013803;28;20464;-82
2022/11/11 02:54:55;;;;;;;11.15;6.90;;;;;;;8.46;100.00;67708.28;5012565;28;20042;-82
2022/11/11 02:57:21;;;;;;;13.98;6.13;;;;;;;8.46;100.00;67714.19;5017579;28;20042;-81
2022/11/11 02:59:46;;;;;;;14.65;8.48;;;;;;;8.45;100.00;67712.47;5019932;28;20041;-82
2022/11/11 03:02:12;;;;;;;14.07;7.65;;;;;;;8.47;100.00;67714.75;5011811;28;20049;-81
2022/11/11 03:04:37;;;;;;;16.40;6.07;;;;;;;8.45;100.00;67713.03;5015502;28;20069;-81
2022/11/11 03:07:03;;;;;;;12.18;7.50;;;;;;;;;;5029109;28;20100;-81
2022/11/11 03:09:29;;;;;;;17.35;9.10;;;;;;;8.48;100.00;67715.88;5018914;28;20740;-81
2022/11/11 03:11:54;;;;;;;15.40;9.15;;;;;;;8.47;100.00;67710.00;5017517;28;20037;-81
2022/11/11 03:14:19;;;;;;;15.95;8.88;;;;;;;8.50;100.00;67718.72;5016832;28;20054;-81
2022/11/11 03:19:29;;;;;;;13.55;8.50;;;;;;;;;;5033234;28;20068;-81
2022/11/11 03:21:54;;;;;;;14.13;8.18;;;;;;;;;;5039172;28;20042;-81
2022/11/11 03:24:20;;;;;;;16.05;10.32;;;;;;;8.47;100.00;67709.44;5021955;28;20042;-81
2022/11/11 03:26:46;;;;;;;15.70;10.77;;;;;;;8.47;100.00;67714.75;5022335;28;20130;-81
2022/11/11 03:29:11;;;;;;;16.95;10.82;;;;;;;;;;5024111;28;20038;-81
2022/11/11 03:31:37;;;;;;;18.00;10.02;;;;;;;;;;5022862;28;20045;-81
2022/11/11 03:34:17;;;;;;;19.65;11.57;;;;;;;8.44;100.00;67714.00;5024506;28;20154;-81
2022/11/11 03:39:28;;;;;;;18.50;10.25;;;;;;;8.44;100.00;67711.34;5021985;28;20045;-81
2022/11/11 03:41:54;;;;;;;20.60;11.18;;;;;;;;;;5018980;28;20049;-81
2022/11/11 03:44:19;;;;;;;21.65;12.55;;;;;;;;;;5024412;28;20042;-81
2022/11/11 03:46:44;;;;;;;19.40;11.23;;;;;;;8.44;100.00;67711.91;5021213;28;20057;-81
2022/11/11 03:49:10;;;;;;;19.23;12.48;;;;;;;8.44;100.00;67714.00;5026386;28;20265;-81
2022/11/11 03:51:35;;;;;;;23.55;13.90;;;;;;;;;;5025846;28;20037;-81
2022/11/11 03:54:00;;;;;;;23.70;14.95;;;;;;;8.43;100.00;67710.78;5014765;28;20138;-81
2022/11/11 03:56:25;;;;;;;26.90;15.10;;;;;;;;;;5015725;28;20088;-81
2022/11/11 03:58:51;;;;;;;25.07;15.53;;;;;;;8.46;100.00;67716.84;5012220;28;20041;-81
2022/11/11 04:10:21;;;;;;;27.25;14.57;;;;;;;8.47;100.00;67715.31;5016802;28;20265;-81
2022/11/11 04:12:13;;;;;;;23.65;13.63;;;;;;;;;;5015412;28;20053;-81
2022/11/11 04:17:22;;;;;;;23.20;13.45;;;;;;;8.37;100.00;67703.94;5014887;28;20052;-81
2022/11/11 04:22:31;;;;;;;23.52;14.85;;;;;;;8.33;100.00;67700.00;5013257;28;20068;-81
2022/11/11 04:27:40;;;;;;;21.98;14.07;;;;;;;;;;5013439;28;20104;-81
2022/11/11 04:30:06;;;;;;;24.35;12.75;;;;;;;8.39;100.00;67708.34;5017566;28;20440;-81
2022/11/11 04:32:34;;;;;;;21.77;12.02;;;;;;;8.38;100.00;67704.53;5014881;28;20659;-81
2022/11/11 04:35:02;;;;;;;21.77;11.98;;;;;;;8.36;100.00;67703.38;5015517;28;20091;-82
2022/11/11 04:37:32;;;;;;;19.42;12.75;;;;;;;8.38;100.00;67704.53;5013536;28;20103;-81
2022/11/11 04:42:40;;;;;;;21.88;13.20;;;;;;;;;;5014704;28;20061;-82
2022/11/11 04:45:29;;;;;;;24.00;11.82;;;;;;;8.35;100.00;67704.34;5012712;28;20041;-81
2022/11/11 04:48:06;;;;;;;22.95;12.43;;;;;;;8.35;100.00;67702.25;5012931;28;20046;-81
2022/11/11 04:50:34;;;;;;;22.13;11.52;;;;;;;8.35;100.00;67702.25;5013091;28;20042;-81
2022/11/11 04:53:00;;;;;;;21.13;13.45;;;;;;;8.33;100.00;67694.13;5010368;28;20038;-80
2022/11/11 04:58:10;;;;;;;18.42;10.48;;;;;;;8.36;100.00;67702.81;5007115;28;20072;-81
2022/11/11 05:00:36;;;;;;;17.65;10.35;;;;;;;8.34;100.00;67701.13;5014092;28;20445;-82
2022/11/11 05:03:22;;;;;;;20.85;11.52;;;;;;;8.35;100.00;67702.25;5017260;28;20069;-82
2022/11/11 05:11:18;;;;;;;20.02;10.75;;;;;;;8.27;100.00;67693.19;5008044;28;20072;-82
2022/11/11 05:22:06;;;;;;;20.58;12.85;;;;;;;;;;5002201;28;20187;-85
2022/11/11 05:27:15;;;;;;;21.67;13.40;;;;;;;8.24;100.00;67683.94;5003699;28;20564;-81
2022/11/11 05:29:40;;;;;;;23.63;13.40;;;;;;;8.26;100.00;67686.22;5004521;28;20045;-81
2022/11/11 05:32:06;;;;;;;21.30;13.00;;;;;;;;;;5003461;28;20041;-82
2022/11/11 05:34:32;;;;;;;21.60;11.70;;;;;;;8.25;100.00;67690.38;5006374;28;20041;-82
2022/11/11 05:36:57;;;;;;;17.60;10.70;;;;;;;8.24;100.00;67689.25;5005178;28;20489;-82
2022/11/11 05:39:22;;;;;;;20.88;13.27;;;;;;;8.26;100.00;67692.06;5002791;28;20519;-81
2022/11/11 05:41:48;;;;;;;19.92;11.23;;;;;;;8.26;100.00;67686.75;5005933;28;20046;-82
2022/11/11 05:44:13;;;;;;;21.77;13.40;;;;;;;8.25;100.00;67696.22;5005577;28;20056;-81
2022/11/11 05:46:38;;;;;;;17.20;10.48;;;;;;;8.24;100.00;67689.25;5004287;28;20128;-81
2022/11/11 05:49:15;;;;;;;21.98;11.30;;;;;;;8.25;100.00;67690.38;5005490;28;20106;-83
2022/11/11 05:51:45;;;;;;;18.52;10.35;;;;;;;8.17;100.00;67681.88;5004875;28;20698;-83
2022/11/11 05:54:10;;;;;;;;;;;;;;;8.13;100.00;67677.34;5006659;28;20121;-83
2022/11/11 05:56:36;;;;;;;16.98;9.45;;;;;;;8.06;100.00;67664.69;5004585;28;20007;-82
2022/11/11 05:59:01;;;;;;;19.15;10.63;;;;;;;8.07;100.00;67670.53;5007253;28;20061;-83
2022/11/11 06:01:27;;;;;;;17.40;10.15;;;;;;;8.03;100.00;67660.72;5005949;28;20111;-83
2022/11/11 06:03:52;;;;;;;20.15;9.85;;;;;;;8.02;100.00;67664.88;5005900;28;20038;-83
2022/11/11 06:06:17;;;;;;;20.38;9.70;;;;;;;;;;5005287;28;20630;-83
2022/11/11 06:08:43;;;;;;;15.60;9.98;;;;;;;7.99;100.00;67661.47;5009094;28;20135;-83
2022/11/11 06:11:08;;;;;;;14.35;8.68;;;;;;;;;;5011350;28;20046;-82
2022/11/11 06:13:33;;;;;;;17.02;8.57;;;;;;;;;;5010982;28;20077;-83
2022/11/11 06:16:00;;;;;;;17.92;10.65;;;;;;;7.89;100.00;67650.72;5012072;28;20064;-83
2022/11/11 06:18:25;;;;;;;15.85;9.75;;;;;;;7.86;100.00;67647.34;5015818;28;20711;-83
2022/11/11 06:20:58;;;;;;;15.43;9.65;;;;;;;7.83;100.00;67639.22;5014293;28;20038;-83
2022/11/11 06:23:24;;;;;;;16.08;8.60;;;;;;;7.80;100.00;67641.13;5012903;28;20508;-83
2022/11/11 06:28:34;;;;;;;16.23;8.07;;;;;;;7.77;100.00;67637.72;5011930;28;20104;-83
2022/11/11 06:31:00;;;;;;;14.85;7.95;;;;;;;7.74;100.00;67633.75;5016034;28;20034;-83
2022/11/11 06:33:25;;;;;;;13.40;7.90;;;;;;;;;;5015726;28;20536;-83
2022/11/11 06:35:51;;;;;;;14.88;8.57;;;;;;;7.73;100.00;67627.88;5008447;28;20038;-83
2022/11/11 06:38:17;;;;;;;17.33;7.80;;;;;;;7.71;100.00;67625.63;5026403;28;20412;-83
2022/11/11 06:40:43;;;;;;;15.15;8.18;;;;;;;7.74;100.00;67633.75;5016080;28;20045;-83
2022/11/11 06:43:09;;;;;;;13.90;7.18;;;;;;;7.75;100.00;67634.88;5015088;28;20993;-83
2022/11/11 06:45:35;;;;;;;12.48;7.40;;;;;;;7.75;100.00;67629.59;5029956;28;20156;-84
2022/11/11 06:48:01;;;;;;;11.43;7.85;;;;;;;7.74;100.00;67634.31;5013232;28;20053;-83
2022/11/11 06:50:27;;;;;;;17.92;7.40;;;;;;;;;;5013867;28;20045;-83
2022/11/11 06:52:53;;;;;;;11.52;6.55;;;;;;;;;;5013483;28;20041;-83
2022/11/11 06:55:18;;;;;;;15.52;7.32;;;;;;;7.77;100.00;67637.13;5013966;28;20046;-83
2022/11/11 06:57:43;;;;;;;16.38;8.27;;;;;;;;;;5017613;28;20100;-83
2022/11/11 07:00:09;;;;;;;13.95;8.68;;;;;;;7.72;100.00;67626.75;5016270;28;20054;-83
2022/11/11 07:02:35;;;;;;;16.88;8.27;;;;;;;;;;5011850;28;20050;-83
2022/11/11 07:05:00;;;;;;;14.75;8.43;;;;;;;7.78;100.00;67638.84;5008477;28;20045;-82
2022/11/11 07:07:27;;;;;;;14.40;7.68;;;;;;;7.79;100.00;67634.66;5008542;28;20053;-82
2022/11/11 07:09:54;;;;;;;12.85;7.35;;;;;;;7.78;100.00;67644.13;5006710;28;20046;-83
2022/11/11 07:12:20;;;;;;;16.60;7.63;;;;;;;7.80;100.00;67643.19;5008126;28;20515;-83
2022/11/11 07:14:45;;;;;;;13.32;6.53;;;;;;;7.81;100.00;67642.25;5008506;28;20042;-83
2022/11/11 07:17:11;;;;;;;15.43;7.72;;;;;;;7.84;100.00;67645.06;4996880;28;20906;-82
2022/11/11 07:19:36;;;;;;;10.15;6.55;;;;;;;7.85;100.00;67646.19;5009370;28;20042;-83
2022/11/11 07:22:02;;;;;;;16.83;7.90;;;;;;;7.84;100.00;67645.06;5007940;28;20547;-83
2022/11/11 07:24:27;;;;;;;14.88;7.38;;;;;;;7.87;100.00;67643.16;5014742;28;20046;-83
2022/11/11 07:26:53;;;;;;;17.63;7.72;;;;;;;7.88;100.00;67650.19;5001914;28;20088;-83
2022/11/11 07:29:18;;;;;;;11.32;6.88;;;;;;;7.89;100.00;67646.00;5004816;28;20096;-83
2022/11/11 07:31:44;;;;;;;12.10;6.85;;;;;;;7.90;100.00;67652.41;5007052;28;20033;-82
2022/11/11 07:34:09;;;;;;;16.33;6.88;;;;;;;7.90;100.00;67655.06;5008118;28;20401;-82
2022/11/11 07:36:35;;;;;;;12.18;6.72;;;;;;;7.95;100.00;67656.97;5007265;28;20131;-82
2022/11/11 07:39:00;;;;;;;16.40;6.85;;;;;;;7.95;100.00;67652.22;5000035;28;20034;-82
2022/11/11 07:41:26;;;;;;;11.10;7.20;;;;;;;7.98;100.00;67660.34;5003773;28;20545;-82
2022/11/11 07:43:51;;;;;;;14.45;7.40;;;;;;;;;;5005655;28;20057;-82
2022/11/11 07:46:17;;;;;;;12.48;6.40;;;;;;;8.02;100.00;67664.88;5017017;28;20050;-82
2022/11/11 07:48:42;;;;;;;13.27;6.93;;;;;;;;;;5004939;28;20042;-82
2022/11/11 07:51:07;;;;;;;10.05;5.53;;;;;;;8.09;100.00;67673.38;5004667;28;20760;-82
2022/11/11 07:53:32;;;;;;;13.13;5.55;;;;;;;;;;5006733;28;20653;-82
2022/11/11 07:55:58;;;;;;;13.52;6.28;;;;;;;8.16;100.00;67680.16;5002519;28;20042;-82
2022/11/11 07:58:23;;;;;;;12.35;5.63;;;;;;;8.21;100.00;67680.53;4987056;28;20050;-82
2022/11/11 08:00:49;;;;;;;11.40;6.38;;;;;;;;;;5020549;28;20522;-82
2022/11/11 08:03:14;;;;;;;10.05;6.35;;;;;;;8.28;100.00;67693.75;5011523;28;20049;-82
2022/11/11 08:05:39;;;;;;;9.73;5.43;;;;;;;8.31;100.00;67691.84;5004344;28;20057;-82
2022/11/11 08:08:06;;;;;;;11.38;5.22;;;;;;;8.35;100.00;67701.69;5006498;28;20041;-83
2022/11/11 08:10:32;;;;;;;9.55;4.82;;;;;;;8.40;100.00;67707.38;5006990;28;20065;-82
2022/11/11 08:15:42;;;;;;;9.88;4.40;;;;;;;8.47;100.00;67710.00;5008550;28;20440;-83
2022/11/11 08:18:07;;;;;;;6.55;4.03;;;;;;;8.50;100.00;67718.72;5006704;28;20034;-83
2022/11/11 08:20:33;;;;;;;9.43;5.28;;;;;;;8.54;100.00;67722.66;5008091;28;20075;-82
2022/11/11 08:22:58;;;;;;;10.82;4.60;;;;;;;8.58;100.00;67727.22;5007930;28;20413;-82
2022/11/11 08:25:24;;;;;;;6.65;3.83;;;;;;;8.63;100.00;67732.88;5006262;28;20076;-82
2022/11/11 08:28:00;;;;;;;10.68;4.50;;;;;;;8.66;100.00;67741.59;5009096;28;20038;-83
2022/11/11 08:30:25;;;;;;;8.10;3.63;;;;;;;8.67;100.00;67740.06;5006906;28;20053;-83
2022/11/11 08:32:57;;;;;;;11.95;5.63;;;;;;;8.71;100.00;67736.63;5009994;28;20042;-82
2022/11/11 08:35:23;;;;;;;14.32;5.20;;;;;;;8.75;100.00;67745.91;5003158;28;20037;-82
2022/11/11 08:37:48;;;;;;;8.77;4.10;;;;;;;8.78;100.00;67752.53;5006071;28;20048;-83
2022/11/11 08:40:15;;;;;;;10.77;4.70;;;;;;;8.82;100.00;67748.53;5007804;28;20041;-83
2022/11/11 08:42:41;;;;;;;9.55;4.15;;;;;;;;;;5008565;28;20569;-83
2022/11/11 08:45:06;;;;;;;7.75;4.22;;;;;;;8.85;100.00;67756.66;5010166;28;20072;-83
2022/11/11 08:47:32;;;;;;;9.18;4.57;;;;;;;;;;5006452;28;20049;-82
2022/11/11 08:49:57;;;;;;;7.93;4.28;;;;;;;8.93;100.00;67760.41;5007147;28;20045;-83
2022/11/11 08:52:22;;;;;;;7.30;4.90;;;;;;;8.97;100.00;67765.50;5007634;28;20501;-83
2022/11/11 08:54:48;;;;;;;10.52;4.53;;;;;;;9.01;100.00;67770.06;5006149;28;20464;-82
2022/11/11 08:57:13;;;;;;;9.50;3.70;;;;;;;9.02;100.00;67775.94;5009883;28;20038;-83
2022/11/11 08:59:39;;;;;;;9.20;4.30;;;;;;;9.07;100.00;67776.28;5008670;28;20117;-83
2022/11/11 09:02:04;;;;;;;6.88;4.00;;;;;;;9.12;100.00;67781.97;5012831;28;20038;-83
2022/11/11 09:04:29;;;;;;;8.13;4.18;;;;;;;9.16;100.00;67791.22;5012749;28;20073;-84
2022/11/11 09:06:55;;;;;;;8.38;4.38;;;;;;;;;;5012879;28;20516;-83
2022/11/11 09:09:20;;;;;;;6.55;3.72;;;;;;;9.18;99.32;67794.06;5011184;28;20053;-83
2022/11/11 09:11:46;;;;;;;8.60;3.83;;;;;;;9.22;99.37;67798.03;5014835;28;20037;-83
2022/11/11 09:14:11;;;;;;;9.65;4.55;;;;;;;9.25;99.02;67802.00;5010699;28;20038;-83
2022/11/11 09:16:36;;;;;;;8.55;4.25;;;;;;;9.30;99.18;67806.53;5019052;28;20038;-84
2022/11/11 09:19:02;;;;;;;8.55;3.80;;;;;;;;;;5006702;28;20070;-83
2022/11/11 09:21:27;;;;;;;8.68;4.03;;;;;;;;;;4993731;28;20094;-83
2022/11/11 09:23:52;;;;;;;9.68;4.18;;;;;;;;;;5013006;28;20074;-84
2022/11/11 09:26:17;;;;;;;6.50;3.67;;;;;;;9.44;98.05;67822.41;5012919;28;20050;-84
2022/11/11 09:28:43;;;;;;;9.13;4.28;;;;;;;;;;5014620;28;20344;-83
2022/11/11 09:31:09;;;;;;;8.18;3.70;;;;;;;9.49;97.57;67828.66;5009385;28;20048;-83
2022/11/11 09:33:34;;;;;;;5.70;3.78;;;;;;;9.55;97.37;67834.88;5011086;28;20390;-83
2022/11/11 09:35:59;;;;;;;9.30;4.03;;;;;;;;;;5008080;28;20046;-84
2022/11/11 09:38:25;;;;;;;8.63;3.55;;;;;;;;;;5012730;28;20078;-84
2022/11/11 09:41:38;;;;;;;6.90;3.38;;;;;;;9.67;95.90;67848.47;5012549;28;20348;-84
2022/11/11 09:44:04;;;;;;;6.63;3.40;;;;;;;9.72;95.77;67848.25;5013389;28;20092;-83
2022/11/11 09:46:30;;;;;;;7.93;3.67;;;;;;;;;;5016454;28;20033;-84
2022/11/11 09:49:16;;;;;;;9.38;4.03;;;;;;;9.88;95.64;67871.72;5017618;28;20124;-84
2022/11/11 09:51:51;;;;;;;6.13;3.67;;;;;;;9.92;94.63;67876.25;5028137;28;20046;-84
2022/11/11 09:54:24;;;;;;;8.65;3.58;;;;;;;9.95;94.25;67879.09;5015448;28;20332;-83
2022/11/11 09:56:50;;;;;;;8.30;3.33;;;;;;;;;;5015588;28;20072;-83
2022/11/11 09:59:24;;;;;;;7.40;3.00;;;;;;;10.09;94.13;67889.66;5016306;28;20691;-83
2022/11/11 10:01:54;;;;;;;10.25;4.07;;;;;;;10.13;93.86;67893.66;5011689;28;20042;-84
2022/11/11 10:04:33;;;;;;;8.18;4.47;;;;;;;10.19;93.60;67905.19;5012662;28;20042;-83
2022/11/11 10:07:00;;;;;;;6.65;3.22;;;;;;;;;;5010510;28;20049;-84
2022/11/11 10:09:29;;;;;;;6.82;3.03;;;;;;;;;;5001378;28;20649;-84
2022/11/11 10:12:09;;;;;;;8.00;3.37;;;;;;;10.31;92.37;67913.50;5019557;28;20044;-84
2022/11/11 10:14:38;;;;;;;10.45;4.28;;;;;;;10.42;93.01;67930.75;5019698;28;20045;-84
2022/11/11 10:17:33;;;;;;;8.68;3.55;;;;;;;10.48;92.27;67932.81;5016401;28;20045;-83
2022/11/11 10:20:14;;;;;;;5.93;2.88;;;;;;;10.51;91.32;67936.19;5013847;28;20049;-84
2022/11/11 10:22:45;;;;;;;6.53;3.33;;;;;;;10.56;90.99;67952.53;5016552;28;20034;-84
2022/11/11 10:25:13;;;;;;;5.28;3.28;;;;;;;10.66;91.65;67952.09;5015865;28;20562;-84
2022/11/11 10:27:43;;;;;;;8.55;3.22;;;;;;;10.76;90.47;67968.75;5015827;28;20113;-84
2022/11/11 10:30:17;;;;;;;8.25;3.10;;;;;;;10.83;90.16;67968.72;5010007;28;20034;-84
2022/11/11 10:32:43;;;;;;;5.88;2.95;;;;;;;;;;5015174;28;20083;-84
2022/11/11 10:35:17;;;;;;;8.63;2.83;;;;;;;11.00;90.11;67990.69;5014273;28;20102;-84
2022/11/11 10:37:42;;;;;;;4.85;2.40;;;;;;;10.97;88.27;67992.03;5026977;28;20042;-84
2022/11/11 10:40:16;;;;;;;5.55;2.63;;;;;;;;;;5030462;28;20536;-84
2022/11/11 10:42:41;;;;;;;6.72;2.85;;;;;;;11.11;88.74;68007.94;5029351;28;20041;-83
2022/11/11 10:45:25;;;;;;;7.55;2.63;;;;;;;;;;5028857;28;20041;-84
2022/11/11 10:47:59;;;;;;;8.32;3.20;;;;;;;11.18;87.88;68009.97;5020817;28;20053;-84
2022/11/11 10:50:38;;;;;;;5.53;2.90;;;;;;;;;;4995333;28;20065;-84
2022/11/11 10:53:11;;;;;;;4.35;2.75;;;;;;;11.32;87.70;68030.63;5008037;28;20097;-83
2022/11/11 10:55:42;;;;;;;6.82;2.85;;;;;;;;;;5010245;28;20042;-85
2022/11/11 10:58:07;;;;;;;4.85;2.35;;;;;;;;;;5014922;28;20041;-84
2022/11/11 11:00:34;;;;;;;8.47;2.60;;;;;;;11.49;86.58;68044.59;5013433;28;20056;-83
2022/11/11 11:03:08;;;;;;;6.22;2.55;;;;;;;11.60;86.31;68057.09;5014656;28;20355;-84
2022/11/11 11:05:43;;;;;;;4.43;2.15;;;;;;;11.72;86.01;68067.50;5013414;28;20447;-84
2022/11/11 11:08:16;;;;;;;6.28;2.50;;;;;;;11.81;85.45;68079.81;5015298;28;20092;-84
2022/11/11 11:10:48;;;;;;;5.75;2.17;;;;;;;11.91;86.29;68091.78;5015027;28;20052;-84
2022/11/11 11:13:25;;;;;;;6.38;2.97;;;;;;;12.01;84.88;68102.00;5016768;28;20031;-84
2022/11/11 11:15:56;;;;;;;5.35;2.67;;;;;;;;;;5015430;28;20130;-84
2022/11/11 11:18:21;;;;;;;6.15;2.70;;;;;;;12.08;84.63;68110.50;5015732;28;20129;-84
2022/11/11 11:20:59;;;;;;;5.03;2.28;;;;;;;12.10;83.16;68117.53;5015321;28;20098;-84
2022/11/11 11:23:34;;;;;;;4.93;2.15;;;;;;;12.10;83.33;68112.78;5011197;28;20049;-84
2022/11/11 11:26:01;;;;;;;5.03;2.67;;;;;;;;;;5013007;28;20125;-84
2022/11/11 11:28:27;;;;;;;6.75;2.13;;;;;;;12.19;83.71;68120.31;5014879;28;20053;-84
2022/11/11 11:31:06;;;;;;;5.60;2.20;;;;;;;12.19;83.34;68128.34;5030823;28;20046;-84
2022/11/11 11:33:50;;;;;;;5.60;2.10;;;;;;;;;;5012013;28;20125;-84
2022/11/11 11:36:17;;;;;;;6.57;2.00;;;;;;;12.31;83.07;68135.50;5009748;28;20045;-85
2022/11/11 11:38:49;;;;;;;5.20;2.20;;;;;;;12.34;82.47;68144.25;4999994;28;20497;-84
2022/11/11 11:41:14;;;;;;;4.32;2.35;;;;;;;;;;5014689;28;24478;-84
2022/11/11 11:43:41;;;;;;;9.40;2.67;;;;;;;;;;5012591;28;20045;-84
2022/11/11 11:46:26;;;;;;;7.25;2.40;;;;;;;;;;5021496;28;20049;-84
2022/11/11 11:49:23;;;;;;;4.97;2.08;;;;;;;12.45;81.52;68151.41;5016587;28;20517;-84
2022/11/11 11:51:55;;;;;;;4.70;2.10;;;;;;;12.42;81.41;68148.00;4962826;28;20050;-84
2022/11/11 11:54:36;;;;;;;5.05;2.45;;;;;;;12.48;82.33;68159.59;5007663;28;20520;-84
2022/11/11 11:57:09;;;;;;;3.35;1.80;;;;;;;12.50;80.97;68156.53;5012511;28;20052;-84
2022/11/11 12:00:13;;;;;;;6.30;2.42;;;;;;;12.56;80.55;68163.91;5022520;28;20073;-84
2022/11/11 12:03:07;;;;;;;4.63;2.50;;;;;;;12.59;81.08;68166.75;4954843;28;20145;-84
2022/11/11 12:05:49;;;;;;;4.82;2.40;;;;;;;12.63;80.53;68171.31;5001459;28;20045;-84
2022/11/11 12:08:29;;;;;;;7.22;2.13;;;;;;;12.71;79.96;68180.38;5015319;28;20041;-84
2022/11/11 12:11:28;;;;;;;7.00;2.45;;;;;;;12.69;78.94;68177.53;5015699;28;20046;-84
2022/11/11 12:14:40;;;;;;;7.78;2.05;;;;;;;12.78;80.24;68193.13;5013964;28;20041;-84
2022/11/11 12:17:50;;;;;;;6.53;2.78;;;;;;;12.78;78.49;68185.13;5011259;28;20078;-84
2022/11/11 12:20:33;;;;;;;6.15;2.33;;;;;;;12.85;78.14;68201.09;5003173;28;20038;-84
2022/11/11 12:23:18;;;;;;;5.80;1.88;;;;;;;12.88;78.30;68199.16;5015718;28;20073;-84
2022/11/11 12:25:47;;;;;;;4.43;2.20;;;;;;;13.03;77.91;68216.22;4998487;28;20037;-84
2022/11/11 12:28:19;;;;;;;4.83;1.97;;;;;;;;;;5014670;28;20406;-84
2022/11/11 12:31:02;;;;;;;7.88;2.60;;;;;;;13.15;76.98;68226.63;5007856;28;20084;-86
2022/11/11 12:33:45;;;;;;;5.05;1.70;;;;;;;13.25;76.59;68246.03;5012609;28;20141;-84
2022/11/11 12:36:18;;;;;;;4.90;1.60;;;;;;;13.29;75.73;68253.25;5004376;28;20068;-84
2022/11/11 12:38:54;;;;;;;5.60;2.03;;;;;;;;;;5014048;28;20459;-84
2022/11/11 12:41:28;;;;;;;4.60;1.40;;;;;;;;;;5014132;28;20042;-84
2022/11/11 12:44:04;;;;;;;3.05;1.40;;;;;;;13.62;74.95;68281.06;5012158;28;20416;-84
2022/11/11 12:46:45;;;;;;;4.68;1.67;;;;;;;;;;5009558;28;20085;-84
2022/11/11 12:49:41;;;;;;;3.38;1.30;;;;;;;13.59;74.80;68278.22;5011837;28;20045;-84
2022/11/11 12:52:19;;;;;;;4.28;1.60;;;;;;;13.67;76.48;68287.31;5011945;28;20030;-84
2022/11/11 12:55:05;;;;;;;2.78;1.45;;;;;;;13.82;75.42;68300.56;5012700;28;20038;-84
2022/11/11 12:57:59;;;;;;;6.78;1.45;;;;;;;13.99;75.96;68322.59;5010714;28;20177;-84
2022/11/11 13:00:25;;;;;;;3.55;1.42;;;;;;;;;;5009652;28;20461;-85
2022/11/11 13:03:14;;;;;;;2.20;1.13;;;;;;;13.94;75.40;68316.88;5008034;28;20073;-85
2022/11/11 13:06:04;;;;;;;5.13;1.65;;;;;;;13.95;75.71;68318.03;5001368;28;20046;-85
2022/11/11 13:08:48;;;;;;;4.60;1.42;;;;;;;13.99;73.13;68320.47;5008536;28;20100;-85
2022/11/11 13:11:27;;;;;;;4.03;1.52;;;;;;;;;;5010596;28;20042;-85
2022/11/11 13:14:01;;;;;;;3.35;1.20;;;;;;;13.89;73.00;68308.53;5011677;28;20045;-85
2022/11/11 13:16:27;;;;;;;3.55;1.20;;;;;;;;;;5007110;28;20501;-84
2022/11/11 13:19:17;;;;;;;3.53;1.10;;;;;;;13.85;73.80;68312.00;5012310;28;20041;-84
2022/11/11 13:21:56;;;;;;;3.85;1.30;;;;;;;13.84;72.94;68305.50;5010815;28;20057;-84
2022/11/11 13:24:22;;;;;;;;;;;;;;;13.92;72.63;68319.97;5012240;28;20057;-85
2022/11/11 13:27:13;;;;;;;2.70;1.00;;;;;;;13.84;74.13;68305.50;5013211;28;20402;-86
2022/11/11 13:29:59;;;;;;;3.97;1.40;;;;;;;13.79;72.80;68295.03;4989260;28;20046;-87
2022/11/11 13:32:36;;;;;;;4.28;1.20;;;;;;;13.93;73.16;68316.31;5021160;28;20046;-85
2022/11/11 13:35:01;;;;;;;5.97;1.73;;;;;;;;;;5014214;28;20042;-84
2022/11/11 13:37:31;;;;;;;3.92;1.63;;;;;;;14.03;73.28;68326.56;5006021;28;20045;-87